Time;durP1;ratioP1;P1;durP2;ratioP2;P2;SDS_P1;SDS_P2;PMS_P1;PMS_P2;Temp;Humidity;BMP_temperature;BMP_pressure;BME280_temperature;BME280_humidity;BME280_pressure;Samples;Min_cycle;Max_cycle;Signal;HPM_P1;HPM_P2
2023/10/22 00:02:15;;;;;;;9.80;3.67;;;;;;;21.00;52.65;64175.72;5103832;28;20232;-80
2023/10/22 00:04:43;;;;;;;5.38;3.75;;;;;;;20.84;54.26;64156.41;5112956;28;20211;-82
2023/10/22 00:07:09;;;;;;;8.18;3.90;;;;;;;20.60;56.17;64137.06;5110371;28;20203;-82
2023/10/22 00:09:37;;;;;;;9.82;3.53;;;;;;;20.54;55.97;64130.28;5101538;28;20242;-82
2023/10/22 00:12:05;;;;;;;7.80;2.83;;;;;;;20.44;57.05;64114.66;5102036;28;20199;-82
2023/10/22 00:14:34;;;;;;;10.27;3.30;;;;;;;20.36;55.31;64106.31;5091389;28;20211;-80
2023/10/22 00:17:01;;;;;;;7.40;3.83;;;;;;;20.22;55.26;64092.22;5088946;28;20192;-82
2023/10/22 00:19:28;;;;;;;5.65;3.30;;;;;;;20.09;56.86;64078.63;5098210;28;20247;-82
2023/10/22 00:21:56;;;;;;;8.23;4.13;;;;;;;19.97;60.71;64065.59;5089360;28;20222;-80
2023/10/22 00:24:23;;;;;;;7.00;2.80;;;;;;;19.79;62.66;64044.22;5090556;28;21243;-83
2023/10/22 00:26:50;;;;;;;7.25;3.03;;;;;;;19.55;63.71;64020.25;5088843;28;20192;-81
2023/10/22 00:29:18;;;;;;;7.70;3.53;;;;;;;19.47;61.36;64011.38;5090903;28;20287;-80
2023/10/22 00:31:47;;;;;;;8.63;2.95;;;;;;;19.49;62.81;64019.16;5102262;28;20251;-80
2023/10/22 00:34:14;;;;;;;6.15;2.75;;;;;;;19.47;61.23;64013.97;5101837;28;20217;-82
2023/10/22 00:36:42;;;;;;;5.60;2.60;;;;;;;19.36;60.31;64000.41;5097589;28;20209;-81
2023/10/22 00:39:09;;;;;;;10.02;2.67;;;;;;;19.39;59.92;64008.72;5088523;28;20208;-81
2023/10/22 00:41:36;;;;;;;9.32;2.95;;;;;;;19.43;58.12;64010.31;5101347;28;20218;-80
2023/10/22 00:44:03;;;;;;;4.80;2.80;;;;;;;19.42;56.61;64011.31;5088719;28;20247;-82
2023/10/22 00:46:31;;;;;;;7.32;2.97;;;;;;;19.43;57.11;64012.88;5089394;28;20199;-80
2023/10/22 00:49:00;;;;;;;6.22;2.72;;;;;;;19.48;60.50;64020.19;5088984;28;20318;-80
2023/10/22 00:51:28;;;;;;;4.10;2.70;;;;;;;19.50;57.76;64017.09;5087834;28;20192;-81
2023/10/22 00:53:55;;;;;;;6.18;2.95;;;;;;;19.50;59.20;64012.44;5102308;28;20230;-81
2023/10/22 00:56:23;;;;;;;4.18;2.40;;;;;;;19.44;59.91;64010.84;5091508;28;20263;-82
2023/10/22 00:58:50;;;;;;;8.02;3.40;;;;;;;19.50;60.15;64015.03;5090064;28;20529;-81
2023/10/22 01:01:19;;;;;;;6.03;2.25;;;;;;;19.47;61.58;64017.06;5090094;28;20196;-82
2023/10/22 01:03:46;;;;;;;8.20;3.38;;;;;;;19.40;61.80;64009.25;5090456;28;20212;-82
2023/10/22 01:06:15;;;;;;;7.38;2.80;;;;;;;19.33;62.77;63996.78;5091434;28;20220;-81
2023/10/22 01:08:42;;;;;;;5.22;3.10;;;;;;;19.21;63.68;63981.66;5087922;28;20227;-81
2023/10/22 01:11:12;;;;;;;6.72;2.83;;;;;;;19.13;65.87;63978.50;5088874;28;20204;-82
2023/10/22 01:13:40;;;;;;;3.67;2.97;;;;;;;19.06;67.83;63966.03;5099413;28;20223;-81
2023/10/22 01:16:08;;;;;;;5.00;2.78;;;;;;;19.08;69.93;63970.69;5113918;28;20192;-83
2023/10/22 01:18:35;;;;;;;4.55;2.72;;;;;;;18.93;71.71;63960.72;5102985;28;20228;-81
2023/10/22 01:21:03;;;;;;;6.47;2.90;;;;;;;18.75;72.45;63933.72;5091668;28;20218;-81
2023/10/22 01:23:37;;;;;;;6.15;3.20;;;;;;;18.70;72.83;63931.09;5092580;28;20230;-82
2023/10/22 01:26:06;;;;;;;8.60;3.67;;;;;;;18.63;74.41;63923.78;5094710;28;20204;-82
2023/10/22 01:28:33;;;;;;;4.20;2.60;;;;;;;18.48;77.13;63915.91;5115134;28;20275;-84
2023/10/22 01:31:00;;;;;;;7.45;3.08;;;;;;;18.40;76.85;63900.88;5110717;28;20250;-82
2023/10/22 01:33:27;;;;;;;4.78;2.65;;;;;;;18.40;77.95;63905.50;5099456;28;20221;-80
2023/10/22 01:35:55;;;;;;;5.28;3.20;;;;;;;18.35;74.56;63892.53;5112741;28;20233;-82
2023/10/22 01:38:22;;;;;;;13.10;3.67;;;;;;;18.29;73.39;63886.78;5112667;28;20531;-82
2023/10/22 01:40:51;;;;;;;3.30;2.60;;;;;;;18.23;70.33;63885.72;5097643;28;20200;-82
2023/10/22 01:43:18;;;;;;;7.35;2.88;;;;;;;18.27;72.96;63895.03;5093326;28;20572;-81
2023/10/22 01:45:46;;;;;;;7.93;2.85;;;;;;;18.27;71.23;63886.78;5093384;28;20203;-82
2023/10/22 01:48:13;;;;;;;5.82;3.35;;;;;;;18.28;71.21;63887.81;5093578;28;20219;-82
2023/10/22 01:50:40;;;;;;;9.80;2.80;;;;;;;18.23;70.98;63887.75;5090992;28;20230;-82
2023/10/22 01:53:07;;;;;;;8.15;3.45;;;;;;;18.31;71.07;63890.94;5092705;28;20200;-81
2023/10/22 01:55:35;;;;;;;8.02;2.65;;;;;;;18.26;71.38;63888.31;5100606;28;20199;-82
2023/10/22 01:58:04;;;;;;;10.00;3.17;;;;;;;18.29;70.14;63888.88;5111529;28;20414;-83
2023/10/22 02:00:32;;;;;;;6.25;2.92;;;;;;;18.32;67.18;63895.09;5092631;28;20259;-81
2023/10/22 02:02:59;;;;;;;9.18;2.97;;;;;;;18.33;65.93;63901.28;5095526;28;20200;-82
2023/10/22 02:05:27;;;;;;;9.02;2.92;;;;;;;18.33;69.73;63898.19;5094042;28;20208;-81
2023/10/22 02:07:54;;;;;;;6.32;2.88;;;;;;;18.28;69.51;63887.81;5096115;28;20222;-82
2023/10/22 02:10:21;;;;;;;5.25;3.05;;;;;;;18.22;71.49;63884.66;5105464;28;20455;-82
2023/10/22 02:12:50;;;;;;;5.45;3.00;;;;;;;18.13;72.69;63872.19;5093691;28;20203;-82
2023/10/22 02:15:18;;;;;;;6.38;2.92;;;;;;;18.08;68.39;63870.09;5094011;28;20238;-81
2023/10/22 02:17:45;;;;;;;8.68;2.75;;;;;;;18.03;67.20;63867.44;5093134;28;20519;-82
2023/10/22 02:20:13;;;;;;;5.97;2.10;;;;;;;18.14;65.39;63878.38;5091783;28;20215;-81
2023/10/22 02:22:40;;;;;;;7.00;3.13;;;;;;;18.11;64.97;63873.22;5091319;28;20400;-83
2023/10/22 02:25:08;;;;;;;5.82;3.13;;;;;;;18.09;65.54;63870.59;5104839;28;20219;-82
2023/10/22 02:27:35;;;;;;;9.32;3.40;;;;;;;18.13;63.63;63872.19;5090186;28;20196;-79
2023/10/22 02:30:02;;;;;;;5.75;2.88;;;;;;;18.23;62.01;63883.13;5092349;28;20276;-83
2023/10/22 02:32:31;;;;;;;8.55;2.80;;;;;;;18.22;62.18;63879.00;5092931;28;20259;-81
2023/10/22 02:34:58;;;;;;;7.85;2.88;;;;;;;18.19;62.23;63881.00;5098625;28;20267;-81
2023/10/22 02:37:25;;;;;;;11.48;3.70;;;;;;;18.19;61.07;63878.44;5111555;28;20217;-83
2023/10/22 02:39:53;;;;;;;6.82;2.33;;;;;;;18.08;60.63;63864.94;5105902;28;20216;-83
2023/10/22 02:42:21;;;;;;;8.05;2.55;;;;;;;18.03;61.28;63866.94;5091074;28;20260;-82
2023/10/22 02:44:48;;;;;;;7.57;2.92;;;;;;;18.12;61.10;63876.31;5101614;28;20216;-82
2023/10/22 02:47:15;;;;;;;5.00;2.50;;;;;;;18.16;60.42;63872.72;5110235;28;20205;-82
2023/10/22 02:49:43;;;;;;;8.35;2.78;;;;;;;18.15;61.18;63876.84;5111748;28;20250;-81
2023/10/22 02:52:10;;;;;;;15.40;3.28;;;;;;;18.02;61.89;63863.81;5096129;28;20203;-82
2023/10/22 02:54:37;;;;;;;6.68;2.92;;;;;;;18.02;62.54;63865.88;5093528;28;20216;-82
2023/10/22 02:57:05;;;;;;;4.93;2.97;;;;;;;18.00;62.60;63861.75;5090349;28;20197;-81
2023/10/22 02:59:32;;;;;;;6.78;2.30;;;;;;;17.96;62.57;63854.47;5090399;28;20238;-81
2023/10/22 03:01:59;;;;;;;8.82;2.92;;;;;;;17.89;63.75;63852.34;5098063;28;20197;-82
2023/10/22 03:04:26;;;;;;;6.70;3.05;;;;;;;17.84;63.52;63845.09;5104621;28;20219;-81
2023/10/22 03:06:56;;;;;;;12.05;3.10;;;;;;;17.76;63.98;63836.75;5091041;28;20226;-81
2023/10/22 03:09:24;;;;;;;12.43;3.42;;;;;;;17.78;63.74;63835.72;5099757;28;20212;-82
2023/10/22 03:11:51;;;;;;;7.28;2.83;;;;;;;17.68;64.31;63831.00;5090791;28;20260;-81
2023/10/22 03:14:20;;;;;;;2.88;2.55;;;;;;;17.80;62.80;63840.91;5089353;28;20540;-81
2023/10/22 03:16:47;;;;;;;4.53;2.60;;;;;;;17.73;63.11;63833.63;5096319;28;20192;-81
2023/10/22 03:19:14;;;;;;;9.43;3.33;;;;;;;17.84;62.58;63841.97;5096199;28;20224;-81
2023/10/22 03:21:42;;;;;;;11.75;2.65;;;;;;;17.80;63.72;63840.91;5090216;28;20234;-83
2023/10/22 03:24:12;;;;;;;5.82;3.08;;;;;;;17.78;64.00;63833.16;5091515;28;20713;-83
2023/10/22 03:26:39;;;;;;;11.55;3.33;;;;;;;17.69;65.23;63828.94;5090391;28;20196;-83
2023/10/22 03:29:07;;;;;;;4.30;2.60;;;;;;;17.34;65.32;63788.34;5109822;28;20233;-81
2023/10/22 03:31:34;;;;;;;9.00;2.78;;;;;;;17.58;66.68;63818.00;5096610;28;20265;-82
2023/10/22 03:34:01;;;;;;;6.32;2.80;;;;;;;17.72;66.06;63824.34;5091320;28;20219;-82
2023/10/22 03:36:29;;;;;;;9.43;3.00;;;;;;;17.56;65.07;63812.81;5089775;28;20210;-81
2023/10/22 03:38:57;;;;;;;9.50;2.85;;;;;;;17.47;66.52;63806.03;5090638;28;20220;-82
2023/10/22 03:41:25;;;;;;;5.30;2.90;;;;;;;17.49;65.86;63808.09;5090338;28;20192;-83
2023/10/22 03:43:52;;;;;;;7.72;3.35;;;;;;;17.44;64.80;63803.41;5094931;28;20216;-81
2023/10/22 03:46:20;;;;;;;4.68;2.75;;;;;;;17.52;64.82;63811.22;5090486;28;20480;-82
2023/10/22 03:48:47;;;;;;;9.95;2.90;;;;;;;17.46;62.88;63802.41;5088862;28;20215;-81
2023/10/22 03:51:14;;;;;;;4.05;2.58;;;;;;;17.46;63.17;63807.53;5089416;28;20223;-81
2023/10/22 03:53:41;;;;;;;8.30;2.83;;;;;;;17.53;62.21;63812.28;5108874;28;20223;-83
2023/10/22 03:56:09;;;;;;;9.05;2.63;;;;;;;17.67;62.44;63826.84;5090193;28;20229;-81
2023/10/22 03:58:37;;;;;;;5.93;3.03;;;;;;;17.64;61.15;63821.16;5090557;28;20528;-81
2023/10/22 04:01:05;;;;;;;8.07;3.25;;;;;;;17.72;61.66;63824.88;5091525;28;20207;-80
2023/10/22 04:03:33;;;;;;;7.63;3.22;;;;;;;17.72;60.87;63832.59;5091845;28;20297;-82
2023/10/22 04:06:00;;;;;;;6.97;3.13;;;;;;;17.73;61.38;63830.53;5089361;28;20207;-82
2023/10/22 04:08:28;;;;;;;12.23;3.20;;;;;;;17.78;61.06;63838.84;5087763;28;20312;-82
2023/10/22 04:10:56;;;;;;;6.85;2.88;;;;;;;17.84;60.75;63842.50;5097442;28;20238;-82
2023/10/22 04:13:23;;;;;;;11.90;2.60;;;;;;;17.80;59.77;63840.38;5111797;28;20226;-82
2023/10/22 04:15:52;;;;;;;8.32;2.47;;;;;;;17.75;59.91;63835.19;5110008;28;20191;-82
2023/10/22 04:18:20;;;;;;;9.25;3.63;;;;;;;17.79;60.90;63832.13;5093002;28;20263;-82
2023/10/22 04:20:49;;;;;;;11.20;3.55;;;;;;;17.73;62.31;63833.09;5104769;28;20257;-82
2023/10/22 04:23:17;;;;;;;6.45;2.55;;;;;;;17.68;63.08;63825.84;5095395;28;20249;-82
2023/10/22 04:25:45;;;;;;;10.45;3.10;;;;;;;17.64;63.95;63821.16;5109675;28;20220;-82
2023/10/22 04:28:13;;;;;;;7.75;2.85;;;;;;;17.64;63.83;63824.25;5107934;28;20195;-83
2023/10/22 04:30:43;;;;;;;14.20;4.22;;;;;;;17.66;61.75;63823.22;5110814;28;20223;-82
2023/10/22 04:33:11;;;;;;;9.77;2.92;;;;;;;17.70;60.56;63832.56;5100828;28;20197;-83
2023/10/22 04:35:39;;;;;;;7.28;2.63;;;;;;;17.76;59.82;63831.59;5106398;28;20231;-82
2023/10/22 04:38:06;;;;;;;13.57;3.67;;;;;;;17.74;59.87;63832.09;5093565;28;20207;-82
2023/10/22 04:40:33;;;;;;;9.10;3.00;;;;;;;17.77;60.56;63837.28;5090841;28;20341;-81
2023/10/22 04:43:00;;;;;;;5.82;3.00;;;;;;;17.81;61.17;63841.44;5087391;28;20573;-82
2023/10/22 04:45:28;;;;;;;11.98;3.13;;;;;;;17.77;61.88;63842.94;5090243;28;20211;-83
2023/10/22 04:47:56;;;;;;;9.52;3.55;;;;;;;17.75;62.54;63832.59;5089069;28;20203;-82
2023/10/22 04:50:25;;;;;;;7.15;3.03;;;;;;;17.71;61.87;63833.59;5096868;28;20257;-82
2023/10/22 04:52:53;;;;;;;6.90;2.72;;;;;;;17.74;62.76;63829.50;5095607;28;20204;-81
2023/10/22 04:55:20;;;;;;;7.43;2.92;;;;;;;17.74;61.23;63831.56;5100138;28;20195;-81
2023/10/22 04:57:48;;;;;;;4.95;2.83;;;;;;;17.75;61.66;63832.59;5111814;28;20270;-82
2023/10/22 05:00:16;;;;;;;6.13;3.20;;;;;;;17.83;62.95;63840.94;5107113;28;20234;-81
2023/10/22 05:02:43;;;;;;;7.18;3.60;;;;;;;17.90;62.89;63850.81;5108043;28;20270;-82
2023/10/22 05:05:11;;;;;;;7.53;2.53;;;;;;;17.99;63.35;63860.72;5115752;28;20219;-83
2023/10/22 05:07:40;;;;;;;10.45;4.35;;;;;;;18.06;63.31;63867.47;5112507;28;20198;-81
2023/10/22 05:10:08;;;;;;;13.45;3.88;;;;;;;18.08;63.27;63867.50;5099731;28;20232;-81
2023/10/22 05:12:35;;;;;;;6.45;4.05;;;;;;;18.11;63.68;63870.63;5091057;28;20362;-80
2023/10/22 05:15:03;;;;;;;12.63;3.65;;;;;;;18.11;63.29;63870.63;5095728;28;20219;-80
2023/10/22 05:17:30;;;;;;;8.60;3.63;;;;;;;18.02;62.58;63861.25;5094141;28;20212;-82
2023/10/22 05:19:57;;;;;;;9.55;3.40;;;;;;;17.90;62.82;63851.31;5095707;28;20244;-80
2023/10/22 05:22:25;;;;;;;7.78;3.40;;;;;;;17.85;61.27;63843.53;5098648;28;20231;-80
2023/10/22 05:24:55;;;;;;;6.15;3.22;;;;;;;17.85;61.19;63840.97;5112295;28;20241;-81
2023/10/22 05:27:22;;;;;;;6.07;3.00;;;;;;;17.81;61.10;63839.38;5108078;28;20223;-82
2023/10/22 05:29:49;;;;;;;8.57;2.97;;;;;;;17.85;61.71;63837.88;5096289;28;20216;-81
2023/10/22 05:32:17;;;;;;;11.52;3.97;;;;;;;17.84;61.21;63847.13;5099786;28;20243;-82
2023/10/22 05:34:44;;;;;;;7.13;3.17;;;;;;;17.83;62.05;63844.03;5092711;28;20238;-80
2023/10/22 05:37:11;;;;;;;11.88;3.08;;;;;;;17.85;59.54;63843.53;5106937;28;20200;-82
2023/10/22 05:39:45;;;;;;;5.13;3.10;;;;;;;17.89;58.66;63850.28;5095424;28;20273;-84
2023/10/22 05:42:13;;;;;;;8.65;3.22;;;;;;;17.91;59.96;63849.78;5093256;28;20211;-82
2023/10/22 05:44:40;;;;;;;5.18;2.92;;;;;;;17.92;59.95;63850.31;5092278;28;20287;-81
2023/10/22 05:47:07;;;;;;;5.10;2.83;;;;;;;17.84;61.00;63844.56;5107004;28;20195;-82
2023/10/22 05:49:35;;;;;;;4.63;2.40;;;;;;;17.79;61.50;63836.78;5096860;28;20204;-82
2023/10/22 05:52:11;;;;;;;11.15;3.03;;;;;;;17.81;61.98;63839.38;5094663;28;20244;-82
2023/10/22 05:54:38;;;;;;;11.35;3.22;;;;;;;17.79;63.26;63842.44;5096137;28;20215;-82
2023/10/22 05:57:05;;;;;;;9.35;3.95;;;;;;;17.79;62.26;63839.34;5114623;28;20259;-83
2023/10/22 05:59:36;;;;;;;8.43;3.22;;;;;;;17.80;61.33;63842.97;5100958;28;20275;-82
2023/10/22 06:02:04;;;;;;;12.38;3.63;;;;;;;17.80;61.40;63835.75;5092442;28;20383;-82
2023/10/22 06:04:31;;;;;;;6.35;3.20;;;;;;;17.89;61.54;63844.63;5101923;28;20237;-81
2023/10/22 06:06:59;;;;;;;10.23;3.58;;;;;;;17.88;61.92;63843.56;5110977;28;20204;-81
2023/10/22 06:09:29;;;;;;;7.18;3.10;;;;;;;17.91;62.30;63852.34;5105910;28;20222;-82
2023/10/22 06:11:56;;;;;;;3.63;2.78;;;;;;;17.92;62.31;63850.84;5093880;28;20250;-82
2023/10/22 06:14:24;;;;;;;6.65;2.78;;;;;;;17.95;62.74;63853.44;5100122;28;20287;-82
2023/10/22 06:16:53;;;;;;;11.32;3.38;;;;;;;17.99;62.25;63855.56;5097322;28;20255;-82
2023/10/22 06:19:20;;;;;;;6.07;3.25;;;;;;;17.96;63.39;63859.63;5097926;28;20226;-81
2023/10/22 06:21:48;;;;;;;8.48;3.53;;;;;;;17.96;64.67;63852.44;5102663;28;20188;-82
2023/10/22 06:24:15;;;;;;;10.45;3.78;;;;;;;17.98;67.88;63856.56;5099256;28;20283;-81
2023/10/22 06:26:42;;;;;;;6.55;3.50;;;;;;;17.79;69.84;63839.34;5097528;28;20192;-83
2023/10/22 06:29:10;;;;;;;11.35;3.38;;;;;;;17.72;75.72;63829.50;5099218;28;20220;-82
2023/10/22 06:31:37;;;;;;;10.45;3.70;;;;;;;17.64;82.04;63821.16;5097385;28;20223;-80
2023/10/22 06:34:06;;;;;;;8.18;3.75;;;;;;;17.59;84.38;63816.47;5104049;28;20212;-79
2023/10/22 06:36:33;;;;;;;13.15;3.67;;;;;;;17.51;82.35;63813.28;5103086;28;20204;-82
2023/10/22 06:39:01;;;;;;;11.23;4.32;;;;;;;17.64;83.82;63821.16;5093992;28;20276;-81
2023/10/22 06:41:31;;;;;;;13.23;6.15;;;;;;;17.65;86.54;63824.78;5106295;28;20337;-82
2023/10/22 06:43:59;;;;;;;12.57;4.25;;;;;;;17.79;88.47;63836.78;5101459;28;20219;-83
2023/10/22 06:46:27;;;;;;;9.80;5.05;;;;;;;17.78;93.31;63843.47;5095355;28;20218;-81
2023/10/22 06:48:54;;;;;;;14.68;4.97;;;;;;;17.67;86.79;63829.94;5104722;28;20211;-83
2023/10/22 06:51:23;;;;;;;12.75;4.28;;;;;;;17.92;82.79;63850.84;5100836;28;20227;-82
2023/10/22 06:53:51;;;;;;;7.03;5.03;;;;;;;18.05;86.81;63866.44;5095503;28;20216;-83
2023/10/22 06:56:19;;;;;;;12.10;4.63;;;;;;;18.14;88.36;63878.38;5095786;28;20215;-81
2023/10/22 06:58:46;;;;;;;8.70;4.43;;;;;;;18.19;88.05;63878.97;5093176;28;20224;-81
2023/10/22 07:01:15;;;;;;;7.22;4.75;;;;;;;18.19;88.83;63884.13;5107064;28;20219;-81
2023/10/22 07:03:44;;;;;;;13.75;5.47;;;;;;;18.34;87.70;63891.50;5100241;28;20216;-81
2023/10/22 07:06:11;;;;;;;12.00;5.10;;;;;;;18.50;84.74;63910.25;5100344;28;20212;-81
2023/10/22 07:08:41;;;;;;;14.13;5.15;;;;;;;18.75;79.31;63938.88;5097774;28;20253;-82
2023/10/22 07:11:07;;;;;;;8.02;4.97;;;;;;;18.90;75.87;63951.91;5094582;28;20215;-82
2023/10/22 07:13:34;;;;;;;9.18;6.10;;;;;;;19.11;78.18;63976.94;5103081;28;20238;-83
2023/10/22 07:16:02;;;;;;;11.18;4.72;;;;;;;19.20;82.75;63983.72;5100990;28;20242;-82
2023/10/22 07:18:30;;;;;;;10.82;4.65;;;;;;;19.35;75.06;63998.84;5094390;28;20238;-83
2023/10/22 07:20:57;;;;;;;11.88;4.95;;;;;;;19.23;74.02;63988.91;5093387;28;20288;-83
2023/10/22 07:23:25;;;;;;;8.48;5.57;;;;;;;19.44;69.37;64011.38;5092694;28;20215;-84
2023/10/22 07:25:58;;;;;;;13.05;5.68;;;;;;;19.63;67.66;64030.13;5099816;28;20187;-84
2023/10/22 07:28:26;;;;;;;9.80;4.78;;;;;;;19.72;68.67;64040.03;5112581;28;20211;-83
2023/10/22 07:30:53;;;;;;;14.98;5.60;;;;;;;19.53;70.40;64017.63;5109057;28;20199;-84
2023/10/22 07:33:24;;;;;;;12.18;5.45;;;;;;;19.60;71.67;64029.59;5107227;28;20223;-84
2023/10/22 07:35:55;;;;;;;10.15;5.65;;;;;;;19.98;69.33;64066.66;5098163;28;20192;-84
2023/10/22 07:38:24;;;;;;;10.43;6.10;;;;;;;20.14;66.29;64086.44;5101919;28;20212;-86
2023/10/22 07:40:55;;;;;;;9.38;6.57;;;;;;;19.73;65.40;64045.72;5096345;28;20192;-85
2023/10/22 07:43:26;;;;;;;23.60;7.13;;;;;;;19.89;64.19;64057.25;5103020;28;20215;-84
2023/10/22 07:45:53;;;;;;;13.77;6.32;;;;;;;20.03;65.98;64069.81;5110692;28;20198;-84
2023/10/22 07:48:22;;;;;;;11.95;6.10;;;;;;;20.39;63.73;64112.03;5094521;28;20234;-83
2023/10/22 07:50:49;;;;;;;12.02;5.80;;;;;;;20.62;61.50;64133.47;5095725;28;20187;-84
2023/10/22 07:53:17;;;;;;;11.40;7.72;;;;;;;20.85;59.46;64156.94;5093921;28;20270;-84
2023/10/22 07:55:45;;;;;;;8.80;5.82;;;;;;;21.10;56.29;64185.66;5105921;28;20239;-83
2023/10/22 07:58:12;;;;;;;8.70;5.47;;;;;;;21.00;57.34;64170.53;5091401;28;20238;-83
2023/10/22 08:00:41;;;;;;;10.43;5.63;;;;;;;21.12;58.73;64185.66;5099917;28;20192;-83
2023/10/22 08:03:09;;;;;;;7.75;5.47;;;;;;;21.19;56.81;64190.38;5096502;28;20226;-82
2023/10/22 08:05:36;;;;;;;11.82;5.10;;;;;;;21.30;56.16;64204.47;5095320;28;20252;-84
2023/10/22 08:08:05;;;;;;;17.02;5.70;;;;;;;21.32;56.19;64206.03;5102421;28;20205;-82
2023/10/22 08:10:33;;;;;;;14.60;5.13;;;;;;;21.32;55.10;64206.03;5098680;28;20214;-83
2023/10/22 08:13:00;;;;;;;11.80;5.05;;;;;;;21.62;53.15;64232.19;5108363;28;20223;-83
2023/10/22 08:15:27;;;;;;;11.40;5.65;;;;;;;21.72;53.95;64242.66;5103930;28;20221;-82
2023/10/22 08:17:56;;;;;;;16.80;5.18;;;;;;;22.00;52.11;64279.19;5090171;28;20267;-84
2023/10/22 08:20:23;;;;;;;8.23;3.97;;;;;;;22.22;50.66;64302.16;5094955;28;20196;-84
2023/10/22 08:22:51;;;;;;;7.57;4.63;;;;;;;22.42;51.62;64321.00;5096970;28;20198;-82
2023/10/22 08:25:20;;;;;;;10.25;4.25;;;;;;;22.63;50.43;64340.38;5115462;28;20404;-84
2023/10/22 08:27:47;;;;;;;14.38;4.97;;;;;;;22.75;49.59;64352.41;5113871;28;20187;-81
2023/10/22 08:30:15;;;;;;;13.93;5.47;;;;;;;22.84;50.34;64362.34;5099507;28;20219;-81
2023/10/22 08:32:46;;;;;;;8.20;4.82;;;;;;;22.77;49.18;64354.50;5108485;28;20235;-83
2023/10/22 08:35:15;;;;;;;13.18;5.05;;;;;;;22.58;50.74;64334.63;5108707;28;20207;-82
2023/10/22 08:37:44;;;;;;;16.92;4.95;;;;;;;22.46;50.94;64327.78;5104936;28;20226;-81
2023/10/22 08:40:12;;;;;;;11.75;3.60;;;;;;;22.68;46.07;64348.19;5099226;28;20215;-80
2023/10/22 08:42:40;;;;;;;8.27;3.60;;;;;;;22.65;47.01;64341.94;5102397;28;20196;-82
2023/10/22 08:45:09;;;;;;;8.68;3.25;;;;;;;22.66;46.38;64348.19;5111720;28;20231;-79
2023/10/22 08:47:36;;;;;;;9.38;3.30;;;;;;;22.78;44.63;64358.13;5113033;28;20207;-83
2023/10/22 08:50:04;;;;;;;7.40;3.88;;;;;;;22.88;44.44;64368.59;5100226;28;20227;-83
2023/10/22 08:52:34;;;;;;;5.03;3.22;;;;;;;23.17;43.35;64395.81;5117382;28;20256;-81
2023/10/22 08:55:01;;;;;;;16.42;3.53;;;;;;;23.32;42.55;64416.69;5111160;28;20282;-80
2023/10/22 08:57:29;;;;;;;6.38;3.08;;;;;;;23.53;42.26;64436.06;5113825;28;20372;-82
2023/10/22 08:59:58;;;;;;;9.10;3.97;;;;;;;23.68;42.40;64451.78;5112454;28;20277;-82
2023/10/22 09:02:28;;;;;;;8.27;3.65;;;;;;;23.64;41.76;64453.31;5112396;28;20206;-80
2023/10/22 09:04:55;;;;;;;9.00;3.45;;;;;;;23.65;42.45;64446.03;5112128;28;20207;-81
2023/10/22 09:07:50;;;;;;;5.95;2.80;;;;;;;23.38;42.68;64423.53;5113943;28;20195;-80
2023/10/22 09:10:25;;;;;;;13.07;3.55;;;;;;;23.35;43.36;64417.25;5093889;28;20216;-80
2023/10/22 09:12:53;;;;;;;6.60;3.50;;;;;;;23.32;42.78;64414.09;5092040;28;20234;-81
2023/10/22 09:15:22;;;;;;;8.10;2.78;;;;;;;23.25;43.04;64407.28;5092676;28;20508;-81
2023/10/22 09:18:01;;;;;;;10.57;3.30;;;;;;;23.32;43.72;64419.84;5100270;28;20199;-80
2023/10/22 09:20:29;;;;;;;9.48;3.15;;;;;;;23.33;43.71;64418.28;5105559;28;20424;-80
2023/10/22 09:23:12;;;;;;;4.72;2.83;;;;;;;23.43;43.26;64423.56;5090402;28;20195;-79
2023/10/22 09:25:41;;;;;;;6.82;3.53;;;;;;;23.52;43.36;64435.53;5093945;28;20223;-81
2023/10/22 09:28:20;;;;;;;13.43;3.97;;;;;;;23.60;43.43;64441.34;5092316;28;20239;-80
2023/10/22 09:30:47;;;;;;;9.95;3.25;;;;;;;23.71;42.67;64455.44;5095658;28;20229;-78
2023/10/22 09:33:18;;;;;;;9.73;3.83;;;;;;;23.77;42.12;64458.59;5097253;28;20230;-80
2023/10/22 09:36:00;;;;;;;15.05;3.67;;;;;;;23.82;41.96;64464.34;5107659;28;20198;-81
2023/10/22 09:38:44;;;;;;;15.45;4.63;;;;;;;23.94;41.71;64482.09;5097649;28;20224;-80
2023/10/22 09:41:13;;;;;;;8.32;3.55;;;;;;;24.09;40.59;64492.09;5092492;28;20188;-82
2023/10/22 09:43:41;;;;;;;10.68;4.40;;;;;;;24.19;41.00;64502.56;5104835;28;20271;-80
2023/10/22 09:46:08;;;;;;;12.30;5.15;;;;;;;24.21;40.34;64502.06;5101725;28;20211;-81
2023/10/22 09:48:36;;;;;;;12.48;4.38;;;;;;;24.26;39.80;64506.78;5098620;28;20279;-80
2023/10/22 09:51:07;;;;;;;9.13;3.63;;;;;;;24.26;40.83;64511.97;5100210;28;20231;-81
2023/10/22 09:53:40;;;;;;;8.05;3.78;;;;;;;24.51;41.37;64538.66;5107356;28;20231;-80
2023/10/22 09:56:12;;;;;;;14.35;5.75;;;;;;;24.39;39.28;64526.09;5098135;28;20231;-81
2023/10/22 09:58:44;;;;;;;15.98;5.50;;;;;;;24.62;40.17;64547.06;5094998;28;20227;-84
2023/10/22 10:01:12;;;;;;;18.85;4.55;;;;;;;24.70;39.44;64558.59;5091963;28;20267;-82
2023/10/22 10:03:41;;;;;;;14.73;4.45;;;;;;;24.79;39.00;64567.47;5095739;28;20230;-83
2023/10/22 10:06:09;;;;;;;20.90;4.70;;;;;;;24.49;38.45;64539.19;5100961;28;20227;-83
2023/10/22 10:08:38;;;;;;;21.23;5.03;;;;;;;24.53;39.39;64540.25;5105115;28;20200;-82
2023/10/22 10:11:10;;;;;;;16.40;4.32;;;;;;;24.56;38.68;64543.91;5101278;28;20198;-83
2023/10/22 10:13:40;;;;;;;15.52;4.25;;;;;;;24.61;39.07;64546.53;5093557;28;20292;-82
2023/10/22 10:16:07;;;;;;;19.08;3.85;;;;;;;24.54;39.34;64544.41;5092511;28;20271;-82
2023/10/22 10:18:58;;;;;;;15.23;4.25;;;;;;;24.64;39.52;64554.38;5105091;28;20212;-83
2023/10/22 10:21:44;;;;;;;16.35;5.40;;;;;;;24.46;39.58;64530.84;5103687;28;20238;-84
2023/10/22 10:24:20;;;;;;;20.92;4.97;;;;;;;24.56;39.24;64543.38;5096910;28;20208;-83
2023/10/22 10:26:50;;;;;;;13.40;3.65;;;;;;;24.73;39.47;64559.13;5107939;28;20195;-84
2023/10/22 10:29:19;;;;;;;20.17;4.82;;;;;;;24.82;38.14;64570.63;5103217;28;20287;-83
2023/10/22 10:31:47;;;;;;;14.82;4.25;;;;;;;24.73;38.46;64564.31;5092544;28;20565;-82
2023/10/22 10:34:33;;;;;;;24.67;4.80;;;;;;;24.95;39.34;64586.84;5094039;28;20242;-83
2023/10/22 10:37:10;;;;;;;16.88;4.93;;;;;;;25.18;39.18;64605.22;5109344;28;20196;-82
2023/10/22 10:39:39;;;;;;;18.23;3.78;;;;;;;25.20;38.21;64613.03;5103300;28;20260;-81
2023/10/22 10:42:09;;;;;;;17.90;4.13;;;;;;;25.33;39.04;64624.06;5113905;28;20257;-83
2023/10/22 10:45:03;;;;;;;14.65;3.80;;;;;;;25.21;38.84;64619.31;5109931;28;20211;-82
2023/10/22 10:47:35;;;;;;;14.77;4.05;;;;;;;25.63;38.97;64652.88;5101923;28;20239;-82
2023/10/22 10:50:06;;;;;;;7.35;3.88;;;;;;;25.79;37.62;64672.28;5099386;28;20230;-81
2023/10/22 10:53:02;;;;;;;19.92;5.03;;;;;;;25.33;37.92;64620.91;5110419;28;20738;-82
2023/10/22 10:55:32;;;;;;;17.35;4.47;;;;;;;25.35;38.03;64623.00;5102894;28;20199;-81
2023/10/22 10:58:02;;;;;;;19.08;4.72;;;;;;;25.41;37.80;64631.91;5116698;28;20195;-85
2023/10/22 11:00:30;;;;;;;15.73;4.32;;;;;;;25.39;37.79;64632.97;5107552;28;20228;-82
2023/10/22 11:02:59;;;;;;;15.85;4.93;;;;;;;25.29;38.06;64619.84;5109292;28;20212;-84
2023/10/22 11:05:37;;;;;;;20.38;6.07;;;;;;;25.37;38.35;64627.75;5113061;28;20199;-84
2023/10/22 11:08:06;;;;;;;14.23;4.93;;;;;;;25.53;37.63;64645.03;5099567;28;20191;-86
2023/10/22 11:10:34;;;;;;;14.00;4.15;;;;;;;25.13;37.14;64602.59;5103743;28;20212;-82
2023/10/22 11:13:08;;;;;;;16.20;4.30;;;;;;;25.58;37.77;64650.25;5098658;28;20223;-85
2023/10/22 11:15:37;;;;;;;12.68;3.17;;;;;;;25.64;37.22;64656.56;5102572;28;20530;-80
2023/10/22 11:18:07;;;;;;;10.40;3.85;;;;;;;25.65;37.65;64659.69;5101831;28;20268;-81
2023/10/22 11:20:36;;;;;;;15.27;4.47;;;;;;;25.76;37.78;64663.91;5091031;28;20204;-82
2023/10/22 11:23:04;;;;;;;13.60;4.60;;;;;;;25.89;37.27;64684.84;5092881;28;20245;-81
2023/10/22 11:25:32;;;;;;;13.02;4.15;;;;;;;25.40;37.63;64628.81;5111524;28;20195;-83
2023/10/22 11:28:00;;;;;;;14.73;4.70;;;;;;;25.35;38.35;64628.75;5104325;28;20196;-84
2023/10/22 11:30:36;;;;;;;14.95;4.70;;;;;;;25.38;39.08;64629.31;5099085;28;20372;-83
2023/10/22 11:33:05;;;;;;;15.65;4.80;;;;;;;25.65;39.86;64657.59;5114347;28;20243;-84
2023/10/22 11:35:32;;;;;;;19.67;4.43;;;;;;;26.02;39.46;64693.78;5107338;28;20258;-83
2023/10/22 11:38:04;;;;;;;16.92;4.35;;;;;;;26.16;37.90;64710.56;5095475;28;20222;-84